Time,TemperatureF,DewpointF,PressureIn,WindDirection,WindDirectionDegrees,WindSpeedMPH,WindSpeedGustMPH,Humidity,HourlyPrecipIn,Conditions,Clouds,dailyrainin,SoftwareType,DateUTC
2013-08-31 00:01:00,75.8,72.3,29.83,NE,36,0.0,0.0,89,0.00,,,0.00,VWS V13.01,2013-08-31 05:01:00,
2013-08-31 00:06:00,75.8,72.0,29.83,NE,36,0.0,0.0,88,0.00,,,0.00,VWS V13.01,2013-08-31 05:06:00,
2013-08-31 00:11:00,75.6,71.8,29.83,NE,36,0.0,0.0,88,0.00,,,0.00,VWS V13.01,2013-08-31 05:11:00,
2013-08-31 00:16:00,75.4,71.6,29.83,NE,36,0.0,0.0,88,0.00,,,0.00,VWS V13.01,2013-08-31 05:16:00,
2013-08-31 00:21:00,75.2,71.4,29.83,NE,36,0.0,0.0,88,0.00,,,0.00,VWS V13.01,2013-08-31 05:21:00,
2013-08-31 00:26:00,75.1,71.6,29.83,NE,36,0.0,0.0,89,0.00,,,0.00,VWS V13.01,2013-08-31 05:26:00,
2013-08-31 00:31:00,74.9,72.1,29.86,NE,36,0.0,0.0,91,0.00,,,0.00,VWS V13.01,2013-08-31 05:31:00,
2013-08-31 00:36:00,74.9,72.7,29.86,NE,36,0.0,0.0,93,0.00,,,0.00,VWS V13.01,2013-08-31 05:36:00,
2013-08-31 00:41:00,74.7,72.6,29.86,NNE,31,0.0,0.0,93,0.00,,,0.00,VWS V13.01,2013-08-31 05:41:00,
2013-08-31 00:46:00,74.7,72.9,29.86,North,9,0.0,0.0,94,0.00,,,0.00,VWS V13.01,2013-08-31 05:46:00,
2013-08-31 00:51:00,74.5,72.7,29.86,North,9,0.0,0.0,94,0.00,,,0.00,VWS V13.01,2013-08-31 05:51:00,
2013-08-31 00:56:00,74.5,72.7,29.86,North,9,0.0,0.0,94,0.00,,,0.00,VWS V13.01,2013-08-31 05:56:00,
2013-08-31 01:01:00,74.5,72.4,29.86,North,9,0.0,0.0,93,0.00,,,0.00,VWS V13.01,2013-08-31 06:01:00,
2013-08-31 01:06:00,74.5,72.4,29.86,North,9,0.0,0.0,93,0.00,,,0.00,VWS V13.01,2013-08-31 06:06:00,
2013-08-31 01:11:00,74.5,72.4,29.86,North,9,0.0,0.0,93,0.00,,,0.00,VWS V13.01,2013-08-31 06:11:00,
2013-08-31 01:16:00,74.3,71.9,29.86,North,9,0.0,0.0,92,0.00,,,0.00,VWS V13.01,2013-08-31 06:16:00,
2013-08-31 01:21:00,74.3,71.9,29.86,North,9,0.0,0.0,92,0.00,,,0.00,VWS V13.01,2013-08-31 06:21:00,
2013-08-31 01:26:00,74.3,71.9,29.86,North,9,0.0,0.0,92,0.00,,,0.00,VWS V13.01,2013-08-31 06:26:00,
2013-08-31 01:31:00,74.2,71.7,29.86,West,271,0.0,0.0,92,0.00,,,0.00,VWS V13.01,2013-08-31 06:31:00,
2013-08-31 01:36:00,74.0,71.8,29.86,WNW,291,0.0,0.0,93,0.00,,,0.00,VWS V13.01,2013-08-31 06:36:00,
2013-08-31 01:41:00,73.8,71.7,29.86,WNW,291,0.0,0.0,93,0.00,,,0.00,VWS V13.01,2013-08-31 06:41:00,
2013-08-31 01:46:00,73.8,72.0,29.86,WNW,291,0.0,0.0,94,0.00,,,0.00,VWS V13.01,2013-08-31 06:46:00,
2013-08-31 01:51:00,73.8,72.3,29.86,WNW,291,0.0,0.0,95,0.00,,,0.00,VWS V13.01,2013-08-31 06:51:00,
2013-08-31 01:56:00,73.6,72.1,29.86,WNW,301,0.0,0.0,95,0.00,,,0.00,VWS V13.01,2013-08-31 06:56:00,
2013-08-31 02:01:00,73.6,72.4,29.86,WNW,301,0.0,0.0,96,0.00,,,0.00,VWS V13.01,2013-08-31 07:01:00,
2013-08-31 02:06:00,73.4,72.2,29.86,WNW,301,0.0,0.0,96,0.00,,,0.00,VWS V13.01,2013-08-31 07:06:00,
2013-08-31 02:11:00,73.4,72.2,29.86,WNW,301,0.0,0.0,96,0.00,,,0.00,VWS V13.01,2013-08-31 07:11:00,
2013-08-31 02:16:00,73.3,72.1,29.86,WNW,301,0.0,0.0,96,0.00,,,0.00,VWS V13.01,2013-08-31 07:16:00,
2013-08-31 02:21:00,73.1,71.9,29.86,WNW,301,0.0,0.0,96,0.00,,,0.00,VWS V13.01,2013-08-31 07:21:00,
2013-08-31 02:26:00,73.1,72.2,29.86,WNW,301,0.0,0.0,97,0.00,,,0.00,VWS V13.01,2013-08-31 07:26:00,
2013-08-31 02:31:00,72.9,72.0,29.86,SW,222,0.0,0.0,97,0.00,,,0.00,VWS V13.01,2013-08-31 07:31:00,
2013-08-31 02:36:00,72.9,72.0,29.86,SW,222,0.0,0.0,97,0.00,,,0.00,VWS V13.01,2013-08-31 07:36:00,
2013-08-31 02:41:00,72.9,72.3,29.86,SW,222,0.0,0.0,98,0.00,,,0.00,VWS V13.01,2013-08-31 07:41:00,
2013-08-31 02:45:00,72.7,72.4,29.86,SW,222,0.0,0.0,99,0.00,,,0.00,VWS V13.01,2013-08-31 07:45:00,
2013-08-31 02:50:00,72.7,72.4,29.86,SW,222,0.0,0.0,99,0.00,,,0.00,VWS V13.01,2013-08-31 07:50:00,
2013-08-31 02:55:00,72.7,72.7,29.86,SW,222,0.0,0.0,100,0.00,,,0.00,VWS V13.01,2013-08-31 07:55:00,
2013-08-31 03:00:00,72.7,72.7,29.86,SW,222,0.0,0.0,100,0.00,,,0.00,VWS V13.01,2013-08-31 08:00:00,
2013-08-31 03:05:00,72.5,72.6,29.86,SW,222,0.0,0.0,100,0.00,,,0.00,VWS V13.01,2013-08-31 08:05:00,
2013-08-31 03:10:00,72.7,72.7,29.86,SW,222,0.0,0.0,100,0.00,,,0.00,VWS V13.01,2013-08-31 08:10:00,
2013-08-31 03:15:00,72.5,72.6,29.86,SW,222,0.0,0.0,100,0.00,,,0.00,VWS V13.01,2013-08-31 08:15:00,
2013-08-31 03:20:00,72.5,72.6,29.86,SW,222,0.0,0.0,100,0.00,,,0.00,VWS V13.01,2013-08-31 08:20:00,
2013-08-31 03:25:00,72.5,72.6,29.86,SW,222,0.0,0.0,100,0.00,,,0.00,VWS V13.01,2013-08-31 08:25:00,
2013-08-31 03:30:00,72.5,72.6,29.86,SW,222,0.0,0.0,100,0.00,,,0.00,VWS V13.01,2013-08-31 08:30:00,
2013-08-31 03:35:00,72.4,72.4,29.86,SW,222,0.0,0.0,100,0.00,,,0.00,VWS V13.01,2013-08-31 08:35:00,
2013-08-31 03:40:00,72.4,72.4,29.86,SW,222,0.0,0.0,100,0.00,,,0.00,VWS V13.01,2013-08-31 08:40:00,
2013-08-31 03:45:00,72.4,72.4,29.86,SW,222,0.0,0.0,100,0.00,,,0.00,VWS V13.01,2013-08-31 08:45:00,
2013-08-31 03:50:00,72.4,72.4,29.86,SW,222,0.0,0.0,100,0.00,,,0.00,VWS V13.01,2013-08-31 08:50:00,
2013-08-31 03:55:00,72.2,72.2,29.86,SW,222,0.0,0.0,100,0.00,,,0.00,VWS V13.01,2013-08-31 08:55:00,
2013-08-31 04:00:00,72.2,72.2,29.86,SW,222,0.0,0.0,100,0.00,,,0.00,VWS V13.01,2013-08-31 09:00:00,
2013-08-31 04:05:00,72.2,72.2,29.86,SW,222,0.0,0.0,100,0.00,,,0.00,VWS V13.01,2013-08-31 09:05:00,
2013-08-31 04:10:00,72.2,72.2,29.86,SW,222,0.0,0.0,100,0.00,,,0.00,VWS V13.01,2013-08-31 09:10:00,
2013-08-31 04:15:00,72.2,72.2,29.86,SW,222,0.0,0.0,100,0.00,,,0.00,VWS V13.01,2013-08-31 09:15:00,
2013-08-31 04:20:00,72.0,72.0,29.86,SW,222,0.0,0.0,100,0.00,,,0.00,VWS V13.01,2013-08-31 09:20:00,
2013-08-31 04:25:00,72.0,72.0,29.86,SW,222,0.0,0.0,100,0.00,,,0.00,VWS V13.01,2013-08-31 09:25:00,
2013-08-31 04:30:00,71.8,71.8,29.86,SW,222,0.0,0.0,100,0.00,,,0.00,VWS V13.01,2013-08-31 09:30:00,
2013-08-31 04:35:00,71.8,71.8,29.86,SW,222,0.0,0.0,100,0.00,,,0.00,VWS V13.01,2013-08-31 09:35:00,
2013-08-31 04:40:00,71.8,71.8,29.86,SW,222,0.0,0.0,100,0.00,,,0.00,VWS V13.01,2013-08-31 09:40:00,
2013-08-31 04:45:00,71.8,71.8,29.86,SW,222,0.0,0.0,100,0.00,,,0.00,VWS V13.01,2013-08-31 09:45:00,
2013-08-31 04:50:00,71.8,71.8,29.86,SW,222,0.0,0.0,100,0.00,,,0.00,VWS V13.01,2013-08-31 09:50:00,
2013-08-31 04:55:00,71.6,71.6,29.86,SW,222,0.0,0.0,100,0.00,,,0.00,VWS V13.01,2013-08-31 09:55:00,
2013-08-31 05:00:00,71.6,71.6,29.86,SW,222,0.0,0.0,100,0.00,,,0.00,VWS V13.01,2013-08-31 10:00:00,
2013-08-31 05:05:00,71.5,71.5,29.86,SW,222,0.0,0.0,100,0.00,,,0.00,VWS V13.01,2013-08-31 10:05:00,
2013-08-31 05:10:00,71.5,71.5,29.86,SW,222,0.0,0.0,100,0.00,,,0.00,VWS V13.01,2013-08-31 10:10:00,
2013-08-31 05:15:00,71.3,71.3,29.86,SW,222,0.0,0.0,100,0.00,,,0.00,VWS V13.01,2013-08-31 10:15:00,
2013-08-31 05:20:00,71.3,71.3,29.86,SW,222,0.0,0.0,100,0.00,,,0.00,VWS V13.01,2013-08-31 10:20:00,
2013-08-31 05:25:00,71.3,71.3,29.86,SW,222,0.0,0.0,100,0.00,,,0.00,VWS V13.01,2013-08-31 10:25:00,
2013-08-31 05:30:00,71.1,71.1,29.86,SW,222,0.0,0.0,100,0.00,,,0.00,VWS V13.01,2013-08-31 10:30:00,
2013-08-31 05:35:00,71.1,71.1,29.86,SW,222,0.0,0.0,100,0.00,,,0.00,VWS V13.01,2013-08-31 10:35:00,
2013-08-31 05:40:00,71.1,71.1,29.86,SW,222,0.0,0.0,100,0.00,,,0.00,VWS V13.01,2013-08-31 10:40:00,
2013-08-31 05:45:00,71.1,71.1,29.86,SW,222,0.0,0.0,100,0.00,,,0.00,VWS V13.01,2013-08-31 10:45:00,
2013-08-31 05:50:00,71.1,71.1,29.86,SW,222,0.0,0.0,100,0.00,,,0.00,VWS V13.01,2013-08-31 10:50:00,
2013-08-31 05:55:00,70.9,70.9,29.86,SW,222,0.0,0.0,100,0.00,,,0.00,VWS V13.01,2013-08-31 10:55:00,
2013-08-31 06:00:00,70.9,70.9,29.86,SW,222,0.0,0.0,100,0.00,,,0.00,VWS V13.01,2013-08-31 11:00:00,
2013-08-31 06:05:00,70.7,70.7,29.86,SW,222,0.0,0.0,100,0.00,,,0.00,VWS V13.01,2013-08-31 11:05:00,
2013-08-31 06:10:00,70.7,70.7,29.86,SW,222,0.0,0.0,100,0.00,,,0.00,VWS V13.01,2013-08-31 11:10:00,
2013-08-31 06:15:00,70.7,70.7,29.86,SW,222,0.0,0.0,100,0.00,,,0.00,VWS V13.01,2013-08-31 11:15:00,
2013-08-31 06:20:00,70.7,70.7,29.86,SW,222,0.0,0.0,100,0.00,,,0.00,VWS V13.01,2013-08-31 11:20:00,
2013-08-31 06:25:00,70.6,70.6,29.86,SW,222,0.0,0.0,100,0.00,,,0.00,VWS V13.01,2013-08-31 11:25:00,
2013-08-31 06:30:00,70.6,70.6,29.86,SW,222,0.0,0.0,100,0.00,,,0.00,VWS V13.01,2013-08-31 11:30:00,
2013-08-31 06:35:00,70.6,70.6,29.86,SW,222,0.0,0.0,100,0.00,,,0.00,VWS V13.01,2013-08-31 11:35:00,
2013-08-31 06:40:00,70.6,70.6,29.86,SW,222,0.0,0.0,100,0.00,,,0.00,VWS V13.01,2013-08-31 11:40:00,
2013-08-31 06:45:00,70.6,70.6,29.86,SW,222,0.0,0.0,100,0.00,,,0.00,VWS V13.01,2013-08-31 11:45:00,
2013-08-31 06:50:00,70.6,70.6,29.86,SW,222,0.0,0.0,100,0.00,,,0.00,VWS V13.01,2013-08-31 11:50:00,
2013-08-31 06:55:00,70.6,70.6,29.86,SW,222,0.0,0.0,100,0.00,,,0.00,VWS V13.01,2013-08-31 11:55:00,
2013-08-31 07:00:00,70.6,70.6,29.86,SW,222,0.0,0.0,100,0.00,,,0.00,VWS V13.01,2013-08-31 12:00:00,
2013-08-31 07:05:00,70.6,70.6,29.86,SW,222,0.0,0.0,100,0.00,,,0.00,VWS V13.01,2013-08-31 12:05:00,
2013-08-31 07:10:00,70.6,70.6,29.86,SW,222,0.0,0.0,100,0.00,,,0.00,VWS V13.01,2013-08-31 12:10:00,
2013-08-31 07:15:00,70.6,70.6,29.89,SW,222,0.0,0.0,100,0.00,,,0.00,VWS V13.01,2013-08-31 12:15:00,
2013-08-31 07:20:00,70.6,70.6,29.89,SW,222,0.0,0.0,100,0.00,,,0.00,VWS V13.01,2013-08-31 12:20:00,
2013-08-31 07:25:00,70.6,70.6,29.89,SW,222,0.0,0.0,100,0.00,,,0.00,VWS V13.01,2013-08-31 12:25:00,
2013-08-31 07:30:00,70.7,70.7,29.89,SW,222,0.0,0.0,100,0.00,,,0.00,VWS V13.01,2013-08-31 12:30:00,
2013-08-31 07:35:00,70.7,70.7,29.89,SW,222,0.0,0.0,100,0.00,,,0.00,VWS V13.01,2013-08-31 12:35:00,
2013-08-31 07:40:00,70.9,70.9,29.89,SW,222,0.0,0.0,100,0.00,,,0.00,VWS V13.01,2013-08-31 12:40:00,
2013-08-31 07:45:00,71.3,71.3,29.89,SW,222,0.0,0.0,100,0.00,,,0.00,VWS V13.01,2013-08-31 12:45:00,
2013-08-31 07:50:00,71.6,71.6,29.89,SW,222,0.0,0.0,100,0.00,,,0.00,VWS V13.01,2013-08-31 12:50:00,
2013-08-31 07:55:00,71.8,71.8,29.89,SW,222,0.0,0.0,100,0.00,,,0.00,VWS V13.01,2013-08-31 12:55:00,
2013-08-31 08:00:00,72.2,72.2,29.89,SW,222,0.0,0.0,100,0.00,,,0.00,VWS V13.01,2013-08-31 13:00:00,
2013-08-31 08:05:00,72.5,72.6,29.89,West,279,0.0,0.0,100,0.00,,,0.00,VWS V13.01,2013-08-31 13:05:00,
2013-08-31 08:10:00,73.1,73.1,29.89,West,279,0.0,0.0,100,0.00,,,0.00,VWS V13.01,2013-08-31 13:10:00,
2013-08-31 08:15:00,73.6,73.6,29.89,West,279,0.0,0.0,100,0.00,,,0.00,VWS V13.01,2013-08-31 13:15:00,
2013-08-31 08:19:00,74.5,74.5,29.89,West,279,0.0,0.0,100,0.00,,,0.00,VWS V13.01,2013-08-31 13:19:00,
2013-08-31 08:24:00,75.2,75.2,29.89,West,266,0.0,0.0,100,0.00,,,0.00,VWS V13.01,2013-08-31 13:24:00,
2013-08-31 08:29:00,75.8,75.8,29.89,West,266,0.0,0.0,100,0.00,,,0.00,VWS V13.01,2013-08-31 13:29:00,
2013-08-31 08:34:00,76.3,76.3,29.89,West,266,0.0,0.0,100,0.00,,,0.00,VWS V13.01,2013-08-31 13:34:00,
2013-08-31 08:39:00,77.2,77.2,29.89,West,268,0.0,0.0,100,0.00,,,0.00,VWS V13.01,2013-08-31 13:39:00,
2013-08-31 08:44:00,78.3,76.8,29.89,West,268,0.0,0.0,95,0.00,,,0.00,VWS V13.01,2013-08-31 13:44:00,
2013-08-31 08:49:00,79.2,71.4,29.89,West,276,0.0,0.0,77,0.00,,,0.00,VWS V13.01,2013-08-31 13:49:00,
2013-08-31 08:54:00,79.9,72.4,29.89,West,280,0.0,0.0,78,0.00,,,0.00,VWS V13.01,2013-08-31 13:54:00,
2013-08-31 08:59:00,80.8,71.8,29.89,WNW,292,0.0,0.0,74,0.00,,,0.00,VWS V13.01,2013-08-31 13:59:00,
2013-08-31 09:04:00,81.2,70.9,29.89,NNE,22,0.0,0.0,71,0.00,,,0.00,VWS V13.01,2013-08-31 14:04:00,
2013-08-31 09:09:00,81.5,71.2,29.89,NNE,22,0.0,0.0,71,0.00,,,0.00,VWS V13.01,2013-08-31 14:09:00,
2013-08-31 09:14:00,82.1,71.3,29.89,NNE,20,0.0,0.0,70,0.00,,,0.00,VWS V13.01,2013-08-31 14:14:00,
2013-08-31 09:19:00,82.6,72.3,29.89,ENE,78,2.2,3.1,71,0.00,,,0.00,VWS V13.01,2013-08-31 14:19:00,
2013-08-31 09:24:00,82.8,72.0,29.89,ENE,68,3.1,3.1,70,0.00,,,0.00,VWS V13.01,2013-08-31 14:24:00,
2013-08-31 09:29:00,83.0,71.8,29.89,NE,40,2.2,3.1,69,0.00,,,0.00,VWS V13.01,2013-08-31 14:29:00,
2013-08-31 09:34:00,83.3,72.5,29.89,South,181,3.6,3.6,70,0.00,,,0.00,VWS V13.01,2013-08-31 14:34:00,
2013-08-31 09:39:00,83.2,71.9,29.89,East,85,0.0,2.7,69,0.00,,,0.00,VWS V13.01,2013-08-31 14:39:00,
2013-08-31 09:44:00,83.9,72.2,29.89,ENE,72,2.2,2.2,68,0.00,,,0.00,VWS V13.01,2013-08-31 14:44:00,
2013-08-31 09:49:00,84.2,72.1,29.89,SE,143,2.7,3.1,67,0.00,,,0.00,VWS V13.01,2013-08-31 14:49:00,
2013-08-31 09:54:00,84.2,72.1,29.89,SSE,164,2.7,2.7,67,0.00,,,0.00,VWS V13.01,2013-08-31 14:54:00,
2013-08-31 09:59:00,84.6,72.0,29.89,WSW,238,2.7,2.7,66,0.00,,,0.00,VWS V13.01,2013-08-31 14:59:00,
2013-08-31 10:04:00,85.1,72.1,29.89,SSE,147,2.7,3.6,65,0.00,,,0.00,VWS V13.01,2013-08-31 15:04:00,
2013-08-31 10:09:00,85.5,71.5,29.89,SSE,147,2.2,2.2,63,0.00,,,0.00,VWS V13.01,2013-08-31 15:09:00,
2013-08-31 10:14:00,85.9,71.8,29.89,SE,143,0.0,0.0,63,0.00,,,0.00,VWS V13.01,2013-08-31 15:14:00,
2013-08-31 10:19:00,86.6,70.6,29.89,SW,232,3.6,3.6,59,0.00,,,0.00,VWS V13.01,2013-08-31 15:19:00,
2013-08-31 10:24:00,86.4,70.4,29.89,South,169,3.6,5.4,59,0.00,,,0.00,VWS V13.01,2013-08-31 15:24:00,
2013-08-31 10:29:00,86.4,70.4,29.89,NNE,26,0.0,2.7,59,0.00,,,0.00,VWS V13.01,2013-08-31 15:29:00,
2013-08-31 10:34:00,87.1,71.6,29.89,SW,226,2.7,3.1,60,0.00,,,0.00,VWS V13.01,2013-08-31 15:34:00,
2013-08-31 10:39:00,87.1,71.1,29.89,West,278,2.7,3.1,59,0.00,,,0.00,VWS V13.01,2013-08-31 15:39:00,
2013-08-31 10:44:00,87.1,71.1,29.89,SSE,153,3.6,4.0,59,0.00,,,0.00,VWS V13.01,2013-08-31 15:44:00,
2013-08-31 10:49:00,87.3,70.7,29.89,WSW,249,2.7,4.0,58,0.00,,,0.00,VWS V13.01,2013-08-31 15:49:00,
2013-08-31 10:54:00,87.3,70.7,29.89,SSW,200,3.1,3.6,58,0.00,,,0.00,VWS V13.01,2013-08-31 15:54:00,
2013-08-31 10:59:00,87.3,70.2,29.89,West,261,3.1,3.1,57,0.00,,,0.00,VWS V13.01,2013-08-31 15:59:00,
2013-08-31 11:04:00,87.8,71.2,29.89,SSE,151,3.6,3.6,58,0.00,,,0.00,VWS V13.01,2013-08-31 16:04:00,
2013-08-31 11:09:00,87.8,70.7,29.89,South,186,2.7,2.7,57,0.00,,,0.00,VWS V13.01,2013-08-31 16:09:00,
2013-08-31 11:14:00,88.6,71.4,29.89,SSE,165,3.1,5.4,57,0.00,,,0.00,VWS V13.01,2013-08-31 16:14:00,
2013-08-31 11:19:00,88.9,72.2,29.89,SSW,213,2.7,5.8,58,0.00,,,0.00,VWS V13.01,2013-08-31 16:19:00,
2013-08-31 11:24:00,89.1,71.4,29.89,WSW,255,2.2,2.7,56,0.00,,,0.00,VWS V13.01,2013-08-31 16:24:00,
2013-08-31 11:29:00,89.1,71.4,29.89,WSW,252,4.0,4.5,56,0.00,,,0.00,VWS V13.01,2013-08-31 16:29:00,
2013-08-31 11:34:00,89.1,71.4,29.89,West,270,0.0,2.2,56,0.00,,,0.00,VWS V13.01,2013-08-31 16:34:00,
2013-08-31 11:39:00,89.6,71.9,29.89,SE,135,2.2,3.6,56,0.00,,,0.00,VWS V13.01,2013-08-31 16:39:00,
2013-08-31 11:44:00,90.2,72.4,29.86,SW,233,3.6,3.6,56,0.00,,,0.00,VWS V13.01,2013-08-31 16:44:00,
2013-08-31 11:49:00,90.0,72.2,29.86,SSW,196,2.2,2.2,56,0.00,,,0.00,VWS V13.01,2013-08-31 16:49:00,
2013-08-31 11:54:00,91.3,72.8,29.86,ENE,61,3.1,3.6,55,0.00,,,0.00,VWS V13.01,2013-08-31 16:54:00,
2013-08-31 11:59:00,92.3,73.8,29.86,South,178,5.8,5.8,55,0.00,,,0.00,VWS V13.01,2013-08-31 16:59:00,
2013-08-31 12:04:00,91.6,71.5,29.86,WSW,257,3.6,3.6,52,0.00,,,0.00,VWS V13.01,2013-08-31 17:04:00,
2013-08-31 12:09:00,91.8,73.3,29.86,ESE,119,4.0,4.0,55,0.00,,,0.00,VWS V13.01,2013-08-31 17:09:00,
2013-08-31 12:14:00,92.0,73.0,29.86,ENE,77,3.6,3.6,54,0.00,,,0.00,VWS V13.01,2013-08-31 17:14:00,
2013-08-31 12:19:00,92.0,72.4,29.86,South,180,4.5,4.5,53,0.00,,,0.00,VWS V13.01,2013-08-31 17:19:00,
2013-08-31 12:24:00,92.2,73.1,29.86,SE,143,4.0,4.9,54,0.00,,,0.00,VWS V13.01,2013-08-31 17:24:00,
2013-08-31 12:29:00,92.2,72.0,29.86,WSW,249,2.7,4.0,52,0.00,,,0.00,VWS V13.01,2013-08-31 17:29:00,
2013-08-31 12:34:00,92.2,70.3,29.86,SW,231,2.2,3.1,49,0.00,,,0.00,VWS V13.01,2013-08-31 17:34:00,
2013-08-31 12:39:00,92.3,70.4,29.86,SSE,167,3.1,5.8,49,0.00,,,0.00,VWS V13.01,2013-08-31 17:39:00,
2013-08-31 12:44:00,92.0,70.7,29.86,SSE,158,3.6,3.6,50,0.00,,,0.00,VWS V13.01,2013-08-31 17:44:00,
2013-08-31 12:49:00,92.2,70.9,29.86,WSW,258,3.1,3.6,50,0.00,,,0.00,VWS V13.01,2013-08-31 17:49:00,
2013-08-31 12:54:00,92.3,71.0,29.86,South,170,3.1,3.1,50,0.00,,,0.00,VWS V13.01,2013-08-31 17:54:00,
2013-08-31 12:59:00,92.5,72.3,29.86,SE,124,5.4,5.4,52,0.00,,,0.00,VWS V13.01,2013-08-31 17:59:00,
2013-08-31 13:04:00,92.9,72.1,29.86,SE,136,3.1,4.0,51,0.00,,,0.00,VWS V13.01,2013-08-31 18:04:00,
2013-08-31 13:09:00,93.2,71.8,29.86,SSW,205,5.8,6.3,50,0.00,,,0.00,VWS V13.01,2013-08-31 18:09:00,
2013-08-31 13:14:00,93.1,71.1,29.86,WSW,244,7.6,7.6,49,0.00,,,0.00,VWS V13.01,2013-08-31 18:14:00,
2013-08-31 13:19:00,92.9,70.3,29.86,NW,318,0.0,0.0,48,0.00,,,0.00,VWS V13.01,2013-08-31 18:19:00,
2013-08-31 13:24:00,93.4,72.0,29.86,South,189,4.0,4.0,50,0.00,,,0.00,VWS V13.01,2013-08-31 18:24:00,
2013-08-31 13:29:00,94.0,71.9,29.83,WSW,257,5.4,5.4,49,0.00,,,0.00,VWS V13.01,2013-08-31 18:29:00,
2013-08-31 13:34:00,94.0,71.9,29.83,SSE,165,3.1,4.9,49,0.00,,,0.00,VWS V13.01,2013-08-31 18:34:00,
2013-08-31 13:39:00,94.1,72.1,29.83,SSE,162,5.8,7.6,49,0.00,,,0.00,VWS V13.01,2013-08-31 18:39:00,
2013-08-31 13:44:00,94.3,71.0,29.83,SE,138,4.0,4.0,47,0.00,,,0.00,VWS V13.01,2013-08-31 18:44:00,
2013-08-31 13:49:00,94.7,71.3,29.83,ESE,123,3.6,5.4,47,0.00,,,0.00,VWS V13.01,2013-08-31 18:49:00,
2013-08-31 13:54:00,95.0,72.3,29.83,SSE,164,2.7,3.6,48,0.00,,,0.00,VWS V13.01,2013-08-31 18:54:00,
2013-08-31 13:59:00,95.4,72.6,29.83,SW,233,5.4,5.4,48,0.00,,,0.00,VWS V13.01,2013-08-31 18:59:00,
2013-08-31 14:04:00,95.6,73.4,29.83,WSW,251,3.1,3.6,49,0.00,,,0.00,VWS V13.01,2013-08-31 19:04:00,
2013-08-31 14:08:00,95.2,71.8,29.83,SSW,192,3.1,3.1,47,0.00,,,0.00,VWS V13.01,2013-08-31 19:08:00,
2013-08-31 14:13:00,95.4,72.0,29.83,SSW,208,3.6,3.6,47,0.00,,,0.00,VWS V13.01,2013-08-31 19:13:00,
2013-08-31 14:18:00,95.4,71.3,29.83,WSW,247,2.7,2.7,46,0.00,,,0.00,VWS V13.01,2013-08-31 19:18:00,
2013-08-31 14:23:00,95.9,72.5,29.83,WSW,257,6.3,6.3,47,0.00,,,0.00,VWS V13.01,2013-08-31 19:23:00,
2013-08-31 14:28:00,95.9,73.1,29.83,WSW,254,3.6,3.6,48,0.00,,,0.00,VWS V13.01,2013-08-31 19:28:00,
2013-08-31 14:33:00,95.8,71.7,29.83,West,279,0.0,3.6,46,0.00,,,0.00,VWS V13.01,2013-08-31 19:33:00,
2013-08-31 14:38:00,96.1,72.6,29.83,WSW,250,6.3,6.3,47,0.00,,,0.00,VWS V13.01,2013-08-31 19:38:00,
2013-08-31 14:43:00,96.3,71.5,29.83,SW,230,3.6,3.6,45,0.00,,,0.00,VWS V13.01,2013-08-31 19:43:00,
2013-08-31 14:48:00,96.7,72.5,29.83,WSW,246,3.1,4.0,46,0.00,,,0.00,VWS V13.01,2013-08-31 19:48:00,
2013-08-31 14:53:00,96.7,72.5,29.83,SW,225,3.6,3.6,46,0.00,,,0.00,VWS V13.01,2013-08-31 19:53:00,
2013-08-31 14:58:00,96.5,71.7,29.83,SW,229,5.8,8.3,45,0.00,,,0.00,VWS V13.01,2013-08-31 19:58:00,
2013-08-31 15:03:00,96.3,71.5,29.80,SW,215,4.0,5.4,45,0.00,,,0.00,VWS V13.01,2013-08-31 20:03:00,
2013-08-31 15:08:00,96.5,71.7,29.80,SW,217,3.6,4.0,45,0.00,,,0.00,VWS V13.01,2013-08-31 20:08:00,
2013-08-31 15:13:00,96.7,71.8,29.80,SW,214,2.7,2.7,45,0.00,,,0.00,VWS V13.01,2013-08-31 20:13:00,
2013-08-31 15:18:00,97.0,72.2,29.80,SW,229,4.0,4.0,45,0.00,,,0.00,VWS V13.01,2013-08-31 20:18:00,
2013-08-31 15:23:00,97.0,72.2,29.80,WSW,238,9.6,9.6,45,0.00,,,0.00,VWS V13.01,2013-08-31 20:23:00,
2013-08-31 15:28:00,96.8,72.0,29.80,WNW,288,4.9,5.4,45,0.00,,,0.00,VWS V13.01,2013-08-31 20:28:00,
2013-08-31 15:33:00,96.8,72.0,29.80,WSW,245,4.0,5.4,45,0.00,,,0.00,VWS V13.01,2013-08-31 20:33:00,
2013-08-31 15:38:00,97.0,72.2,29.80,SW,229,5.4,5.4,45,0.00,,,0.00,VWS V13.01,2013-08-31 20:38:00,
2013-08-31 15:43:00,97.0,72.2,29.80,West,266,3.1,3.1,45,0.00,,,0.00,VWS V13.01,2013-08-31 20:43:00,
2013-08-31 15:48:00,97.2,72.3,29.80,SW,231,4.0,4.0,45,0.00,,,0.00,VWS V13.01,2013-08-31 20:48:00,
2013-08-31 15:53:00,97.2,72.3,29.80,SSW,196,2.7,2.7,45,0.00,,,0.00,VWS V13.01,2013-08-31 20:53:00,
2013-08-31 15:58:00,97.2,72.3,29.80,WSW,250,2.7,2.7,45,0.00,,,0.00,VWS V13.01,2013-08-31 20:58:00,
2013-08-31 16:03:00,97.4,72.5,29.80,South,185,4.0,4.0,45,0.00,,,0.00,VWS V13.01,2013-08-31 21:03:00,
2013-08-31 16:08:00,97.4,72.5,29.80,South,178,2.7,3.1,45,0.00,,,0.00,VWS V13.01,2013-08-31 21:08:00,
2013-08-31 16:13:00,97.4,72.5,29.80,South,189,3.6,3.6,45,0.00,,,0.00,VWS V13.01,2013-08-31 21:13:00,
2013-08-31 16:18:00,97.4,72.5,29.80,SW,236,5.4,6.3,45,0.00,,,0.00,VWS V13.01,2013-08-31 21:18:00,
2013-08-31 16:23:00,97.4,72.5,29.80,SSW,198,3.6,4.0,45,0.00,,,0.00,VWS V13.01,2013-08-31 21:23:00,
2013-08-31 16:28:00,97.4,73.2,29.80,WSW,245,3.6,4.9,46,0.00,,,0.00,VWS V13.01,2013-08-31 21:28:00,
2013-08-31 16:33:00,97.4,72.5,29.80,SW,226,3.6,4.9,45,0.00,,,0.00,VWS V13.01,2013-08-31 21:33:00,
2013-08-31 16:38:00,97.4,72.5,29.80,SSE,163,5.4,5.4,45,0.00,,,0.00,VWS V13.01,2013-08-31 21:38:00,
2013-08-31 16:43:00,97.2,72.3,29.80,West,261,3.1,3.1,45,0.00,,,0.00,VWS V13.01,2013-08-31 21:43:00,
2013-08-31 16:48:00,97.2,72.3,29.80,SW,233,5.8,7.6,45,0.00,,,0.00,VWS V13.01,2013-08-31 21:48:00,
2013-08-31 16:53:00,97.0,72.2,29.80,WSW,238,8.3,10.5,45,0.00,,,0.00,VWS V13.01,2013-08-31 21:53:00,
2013-08-31 16:58:00,97.0,72.2,29.80,SW,236,4.0,5.8,45,0.00,,,0.00,VWS V13.01,2013-08-31 21:58:00,
2013-08-31 17:03:00,96.8,72.0,29.80,WSW,237,3.1,4.0,45,0.00,,,0.00,VWS V13.01,2013-08-31 22:03:00,
2013-08-31 17:08:00,97.2,72.3,29.80,South,175,5.4,5.4,45,0.00,,,0.00,VWS V13.01,2013-08-31 22:08:00,
2013-08-31 17:13:00,97.2,72.3,29.80,South,190,3.6,3.6,45,0.00,,,0.00,VWS V13.01,2013-08-31 22:13:00,
2013-08-31 17:18:00,97.0,72.8,29.80,South,170,2.7,5.4,46,0.00,,,0.00,VWS V13.01,2013-08-31 22:18:00,
2013-08-31 17:23:00,96.5,71.7,29.80,South,190,4.0,6.7,45,0.00,,,0.00,VWS V13.01,2013-08-31 22:23:00,
2013-08-31 17:28:00,96.1,72.0,29.80,SSW,193,4.0,5.4,46,0.00,,,0.00,VWS V13.01,2013-08-31 22:28:00,
2013-08-31 17:33:00,96.1,72.0,29.78,South,169,2.7,4.0,46,0.00,,,0.00,VWS V13.01,2013-08-31 22:33:00,
2013-08-31 17:38:00,95.6,72.2,29.78,South,175,5.8,7.6,47,0.00,,,0.00,VWS V13.01,2013-08-31 22:38:00,
2013-08-31 17:43:00,95.0,71.7,29.78,SSW,196,5.4,6.3,47,0.00,,,0.00,VWS V13.01,2013-08-31 22:43:00,
2013-08-31 17:48:00,94.9,71.5,29.80,SSE,168,7.6,10.5,47,0.00,,,0.00,VWS V13.01,2013-08-31 22:48:00,
2013-08-31 17:53:00,94.5,71.8,29.80,South,179,3.1,3.6,48,0.00,,,0.00,VWS V13.01,2013-08-31 22:53:00,
2013-08-31 17:58:00,94.5,71.8,29.80,South,185,4.0,4.0,48,0.00,,,0.00,VWS V13.01,2013-08-31 22:58:00,
2013-08-31 18:03:00,94.5,72.4,29.80,SSW,202,2.2,2.2,49,0.00,,,0.00,VWS V13.01,2013-08-31 23:03:00,
2013-08-31 18:08:00,94.7,72.6,29.80,SSW,199,3.1,3.6,49,0.00,,,0.00,VWS V13.01,2013-08-31 23:08:00,
2013-08-31 18:13:00,94.7,72.6,29.80,WSW,244,2.7,3.6,49,0.00,,,0.00,VWS V13.01,2013-08-31 23:13:00,
2013-08-31 18:18:00,94.3,73.4,29.80,SW,217,3.6,3.6,51,0.00,,,0.00,VWS V13.01,2013-08-31 23:18:00,
2013-08-31 18:23:00,94.0,71.9,29.80,SW,225,3.1,3.1,49,0.00,,,0.00,VWS V13.01,2013-08-31 23:23:00,
2013-08-31 18:28:00,93.6,72.2,29.80,SW,227,2.7,2.7,50,0.00,,,0.00,VWS V13.01,2013-08-31 23:28:00,
2013-08-31 18:33:00,93.6,72.8,29.80,South,188,2.7,4.0,51,0.00,,,0.00,VWS V13.01,2013-08-31 23:33:00,
2013-08-31 18:38:00,93.2,72.4,29.80,South,189,2.2,2.7,51,0.00,,,0.00,VWS V13.01,2013-08-31 23:38:00,
2013-08-31 18:43:00,93.1,72.8,29.80,South,189,2.7,2.7,52,0.00,,,0.00,VWS V13.01,2013-08-31 23:43:00,
2013-08-31 18:48:00,93.2,73.0,29.80,South,189,0.0,0.0,52,0.00,,,0.00,VWS V13.01,2013-08-31 23:48:00,
2013-08-31 18:53:00,92.9,74.3,29.80,East,96,2.7,2.7,55,0.00,,,0.00,VWS V13.01,2013-08-31 23:53:00,
2013-08-31 18:58:00,92.0,73.5,29.80,East,90,2.2,2.7,55,0.00,,,0.00,VWS V13.01,2013-08-31 23:58:00,
2013-08-31 19:03:00,91.4,73.0,29.80,East,90,0.0,0.0,55,0.00,,,0.00,VWS V13.01,2013-09-01 00:03:00,
2013-08-31 19:08:00,91.1,72.7,29.80,ENE,65,2.7,3.1,55,0.00,,,0.00,VWS V13.01,2013-09-01 00:08:00,
2013-08-31 19:13:00,90.5,72.7,29.80,ENE,72,0.0,0.0,56,0.00,,,0.00,VWS V13.01,2013-09-01 00:13:00,
2013-08-31 19:18:00,90.2,72.4,29.80,ENE,78,0.0,0.0,56,0.00,,,0.00,VWS V13.01,2013-09-01 00:18:00,
2013-08-31 19:23:00,90.0,72.2,29.80,ENE,78,0.0,0.0,56,0.00,,,0.00,VWS V13.01,2013-09-01 00:23:00,
2013-08-31 19:28:00,89.8,72.0,29.80,ENE,78,0.0,0.0,56,0.00,,,0.00,VWS V13.01,2013-09-01 00:28:00,
2013-08-31 19:33:00,89.5,72.2,29.80,ENE,78,0.0,0.0,57,0.00,,,0.00,VWS V13.01,2013-09-01 00:33:00,
2013-08-31 19:37:00,88.6,71.9,29.80,ENE,78,0.0,0.0,58,0.00,,,0.00,VWS V13.01,2013-09-01 00:37:00,
2013-08-31 19:42:00,87.8,71.7,29.80,ENE,78,0.0,0.0,59,0.00,,,0.00,VWS V13.01,2013-09-01 00:42:00,
2013-08-31 19:47:00,87.5,71.4,29.80,ENE,78,0.0,0.0,59,0.00,,,0.00,VWS V13.01,2013-09-01 00:47:00,
2013-08-31 19:52:00,87.1,71.6,29.80,ENE,78,0.0,0.0,60,0.00,,,0.00,VWS V13.01,2013-09-01 00:52:00,
2013-08-31 19:57:00,86.9,71.4,29.80,ENE,78,0.0,0.0,60,0.00,,,0.00,VWS V13.01,2013-09-01 00:57:00,
2013-08-31 20:02:00,86.6,72.0,29.80,ENE,78,0.0,0.0,62,0.00,,,0.00,VWS V13.01,2013-09-01 01:02:00,
2013-08-31 20:07:00,85.5,72.8,29.80,NE,40,0.0,0.0,66,0.00,,,0.00,VWS V13.01,2013-09-01 01:07:00,
2013-08-31 20:12:00,84.6,72.4,29.80,NE,40,0.0,0.0,67,0.00,,,0.00,VWS V13.01,2013-09-01 01:12:00,
2013-08-31 20:17:00,84.2,72.1,29.80,NE,40,0.0,0.0,67,0.00,,,0.00,VWS V13.01,2013-09-01 01:17:00,
2013-08-31 20:22:00,83.7,71.6,29.80,NE,50,0.0,2.2,67,0.00,,,0.00,VWS V13.01,2013-09-01 01:22:00,
2013-08-31 20:27:00,83.5,71.8,29.80,NE,40,0.0,0.0,68,0.00,,,0.00,VWS V13.01,2013-09-01 01:27:00,
2013-08-31 20:32:00,83.2,71.5,29.80,NE,40,0.0,0.0,68,0.00,,,0.00,VWS V13.01,2013-09-01 01:32:00,
2013-08-31 20:37:00,83.0,71.8,29.80,NE,40,0.0,0.0,69,0.00,,,0.00,VWS V13.01,2013-09-01 01:37:00,
2013-08-31 20:42:00,82.8,71.2,29.80,NE,35,0.0,0.0,68,0.00,,,0.00,VWS V13.01,2013-09-01 01:42:00,
2013-08-31 20:47:00,82.6,71.0,29.80,NE,35,0.0,0.0,68,0.00,,,0.00,VWS V13.01,2013-09-01 01:47:00,
2013-08-31 20:52:00,82.4,70.8,29.80,NE,35,0.0,0.0,68,0.00,,,0.00,VWS V13.01,2013-09-01 01:52:00,
2013-08-31 20:57:00,82.1,71.3,29.80,NE,35,0.0,0.0,70,0.00,,,0.00,VWS V13.01,2013-09-01 01:57:00,
2013-08-31 21:02:00,81.7,71.4,29.80,NE,35,0.0,0.0,71,0.00,,,0.00,VWS V13.01,2013-09-01 02:02:00,
2013-08-31 21:07:00,81.4,70.7,29.80,NE,35,0.0,0.0,70,0.00,,,0.00,VWS V13.01,2013-09-01 02:07:00,
2013-08-31 21:12:00,81.4,70.7,29.80,NE,35,0.0,0.0,70,0.00,,,0.00,VWS V13.01,2013-09-01 02:12:00,
2013-08-31 21:17:00,81.2,70.5,29.80,NE,35,0.0,0.0,70,0.00,,,0.00,VWS V13.01,2013-09-01 02:17:00,
2013-08-31 21:22:00,81.0,70.3,29.80,NE,35,0.0,0.0,70,0.00,,,0.00,VWS V13.01,2013-09-01 02:22:00,
2013-08-31 21:27:00,80.8,70.1,29.80,NE,35,0.0,0.0,70,0.00,,,0.00,VWS V13.01,2013-09-01 02:27:00,
2013-08-31 21:32:00,80.6,70.4,29.80,NE,35,0.0,0.0,71,0.00,,,0.00,VWS V13.01,2013-09-01 02:32:00,
2013-08-31 21:37:00,80.3,70.4,29.80,NE,35,0.0,0.0,72,0.00,,,0.00,VWS V13.01,2013-09-01 02:37:00,
2013-08-31 21:42:00,80.1,70.3,29.80,NE,35,0.0,0.0,72,0.00,,,0.00,VWS V13.01,2013-09-01 02:42:00,
2013-08-31 21:47:00,79.7,70.3,29.80,NE,35,0.0,0.0,73,0.00,,,0.00,VWS V13.01,2013-09-01 02:47:00,
2013-08-31 21:52:00,79.2,71.0,29.80,NE,35,0.0,0.0,76,0.00,,,0.00,VWS V13.01,2013-09-01 02:52:00,
2013-08-31 21:57:00,78.8,70.6,29.80,NE,35,0.0,0.0,76,0.00,,,0.00,VWS V13.01,2013-09-01 02:57:00,
2013-08-31 22:02:00,78.5,70.3,29.80,NE,35,0.0,0.0,76,0.00,,,0.00,VWS V13.01,2013-09-01 03:02:00,
2013-08-31 22:07:00,78.3,71.6,29.80,NE,35,0.0,0.0,80,0.00,,,0.00,VWS V13.01,2013-09-01 03:07:00,
2013-08-31 22:12:00,78.1,72.2,29.80,NE,35,0.0,0.0,82,0.00,,,0.00,VWS V13.01,2013-09-01 03:12:00,
2013-08-31 22:17:00,77.9,72.4,29.80,NE,35,0.0,0.0,83,0.00,,,0.00,VWS V13.01,2013-09-01 03:17:00,
2013-08-31 22:22:00,77.6,71.7,29.80,NE,35,0.0,0.0,82,0.00,,,0.00,VWS V13.01,2013-09-01 03:22:00,
2013-08-31 22:27:00,77.4,71.8,29.80,NE,35,0.0,0.0,83,0.00,,,0.00,VWS V13.01,2013-09-01 03:27:00,
2013-08-31 22:32:00,77.2,71.7,29.80,NE,35,0.0,0.0,83,0.00,,,0.00,VWS V13.01,2013-09-01 03:32:00,
2013-08-31 22:37:00,77.0,71.5,29.80,NE,35,0.0,0.0,83,0.00,,,0.00,VWS V13.01,2013-09-01 03:37:00,
2013-08-31 22:42:00,77.0,71.5,29.80,NW,309,0.0,0.0,83,0.00,,,0.00,VWS V13.01,2013-09-01 03:42:00,
2013-08-31 22:47:00,76.9,70.9,29.80,NW,309,0.0,0.0,82,0.00,,,0.00,VWS V13.01,2013-09-01 03:47:00,
2013-08-31 22:52:00,76.9,70.9,29.80,NW,309,0.0,0.0,82,0.00,,,0.00,VWS V13.01,2013-09-01 03:52:00,
2013-08-31 22:57:00,76.7,70.8,29.80,NW,309,0.0,0.0,82,0.00,,,0.00,VWS V13.01,2013-09-01 03:57:00,
2013-08-31 23:01:00,76.7,70.8,29.80,NW,309,0.0,0.0,82,0.00,,,0.00,VWS V13.01,2013-09-01 04:01:00,
2013-08-31 23:06:00,76.7,70.8,29.80,NW,309,0.0,0.0,82,0.00,,,0.00,VWS V13.01,2013-09-01 04:06:00,
2013-08-31 23:11:00,76.5,70.2,29.80,NW,309,0.0,0.0,81,0.00,,,0.00,VWS V13.01,2013-09-01 04:11:00,
2013-08-31 23:16:00,76.3,70.1,29.80,NW,309,0.0,0.0,81,0.00,,,0.00,VWS V13.01,2013-09-01 04:16:00,
2013-08-31 23:21:00,76.3,70.1,29.80,NW,309,0.0,0.0,81,0.00,,,0.00,VWS V13.01,2013-09-01 04:21:00,
2013-08-31 23:26:00,76.1,70.2,29.80,NW,309,0.0,0.0,82,0.00,,,0.00,VWS V13.01,2013-09-01 04:26:00,
2013-08-31 23:31:00,76.0,70.8,29.80,NW,309,0.0,0.0,84,0.00,,,0.00,VWS V13.01,2013-09-01 04:31:00,
2013-08-31 23:36:00,75.8,70.6,29.80,NW,309,0.0,0.0,84,0.00,,,0.00,VWS V13.01,2013-09-01 04:36:00,
2013-08-31 23:41:00,75.4,70.2,29.80,NW,309,0.0,0.0,84,0.00,,,0.00,VWS V13.01,2013-09-01 04:41:00,
2013-08-31 23:46:00,75.2,70.8,29.80,NW,309,0.0,0.0,86,0.00,,,0.00,VWS V13.01,2013-09-01 04:46:00,
2013-08-31 23:51:00,75.2,71.8,29.80,NW,309,0.0,0.0,89,0.00,,,0.00,VWS V13.01,2013-09-01 04:51:00,
2013-08-31 23:56:00,75.2,71.4,29.80,NW,309,0.0,0.0,88,0.00,,,0.00,VWS V13.01,2013-09-01 04:56:00,